sensor_id;sensor_type;location;lat;lon;timestamp;P1;durP1;ratioP1;P2;durP2;ratioP2
11568;SDS011;5840;46.894;15.542;2022-12-18T00:00:58;115.20;;;32.80;;
11568;SDS011;5840;46.894;15.542;2022-12-18T00:03:25;49.23;;;28.93;;
11568;SDS011;5840;46.894;15.542;2022-12-18T00:05:52;49.70;;;27.60;;
11568;SDS011;5840;46.894;15.542;2022-12-18T00:08:19;31.43;;;26.50;;
11568;SDS011;5840;46.894;15.542;2022-12-18T00:10:46;28.30;;;25.07;;
11568;SDS011;5840;46.894;15.542;2022-12-18T00:13:14;28.97;;;25.50;;
11568;SDS011;5840;46.894;15.542;2022-12-18T00:15:41;27.20;;;24.27;;
11568;SDS011;5840;46.894;15.542;2022-12-18T00:18:08;27.00;;;24.07;;
11568;SDS011;5840;46.894;15.542;2022-12-18T00:20:35;26.57;;;23.73;;
11568;SDS011;5840;46.894;15.542;2022-12-18T00:23:03;28.47;;;24.60;;
11568;SDS011;5840;46.894;15.542;2022-12-18T00:25:32;29.57;;;25.60;;
11568;SDS011;5840;46.894;15.542;2022-12-18T00:27:59;29.97;;;24.83;;
11568;SDS011;5840;46.894;15.542;2022-12-18T00:30:27;28.50;;;24.97;;
11568;SDS011;5840;46.894;15.542;2022-12-18T00:32:54;32.73;;;25.97;;
11568;SDS011;5840;46.894;15.542;2022-12-18T00:35:21;32.60;;;26.67;;
11568;SDS011;5840;46.894;15.542;2022-12-18T00:37:48;30.33;;;24.80;;
11568;SDS011;5840;46.894;15.542;2022-12-18T00:40:15;29.50;;;25.70;;
11568;SDS011;5840;46.894;15.542;2022-12-18T00:42:42;29.43;;;25.57;;
11568;SDS011;5840;46.894;15.542;2022-12-18T00:45:24;37.13;;;26.57;;
11568;SDS011;5840;46.894;15.542;2022-12-18T00:47:55;33.07;;;26.90;;
11568;SDS011;5840;46.894;15.542;2022-12-18T00:50:23;53.37;;;29.00;;
11568;SDS011;5840;46.894;15.542;2022-12-18T00:52:51;32.53;;;26.80;;
11568;SDS011;5840;46.894;15.542;2022-12-18T00:55:18;35.07;;;27.53;;
11568;SDS011;5840;46.894;15.542;2022-12-18T00:57:45;30.27;;;25.73;;
11568;SDS011;5840;46.894;15.542;2022-12-18T01:00:13;29.87;;;25.40;;
11568;SDS011;5840;46.894;15.542;2022-12-18T01:02:41;28.17;;;24.83;;
11568;SDS011;5840;46.894;15.542;2022-12-18T01:05:10;29.70;;;24.70;;
11568;SDS011;5840;46.894;15.542;2022-12-18T01:07:38;34.53;;;26.20;;
11568;SDS011;5840;46.894;15.542;2022-12-18T01:10:06;64.97;;;28.30;;
11568;SDS011;5840;46.894;15.542;2022-12-18T01:12:34;32.13;;;27.17;;
11568;SDS011;5840;46.894;15.542;2022-12-18T01:15:01;76.33;;;27.67;;
11568;SDS011;5840;46.894;15.542;2022-12-18T01:17:29;32.60;;;27.30;;
11568;SDS011;5840;46.894;15.542;2022-12-18T01:19:55;33.67;;;27.03;;
11568;SDS011;5840;46.894;15.542;2022-12-18T01:22:24;31.77;;;26.03;;
11568;SDS011;5840;46.894;15.542;2022-12-18T01:24:51;40.50;;;25.90;;
11568;SDS011;5840;46.894;15.542;2022-12-18T01:27:17;34.77;;;26.80;;
11568;SDS011;5840;46.894;15.542;2022-12-18T01:29:44;32.33;;;26.27;;
11568;SDS011;5840;46.894;15.542;2022-12-18T01:32:11;32.33;;;26.63;;
11568;SDS011;5840;46.894;15.542;2022-12-18T01:34:38;35.67;;;25.40;;
11568;SDS011;5840;46.894;15.542;2022-12-18T01:37:05;29.50;;;25.97;;
11568;SDS011;5840;46.894;15.542;2022-12-18T01:39:33;31.17;;;26.00;;
11568;SDS011;5840;46.894;15.542;2022-12-18T01:42:00;33.23;;;27.13;;
11568;SDS011;5840;46.894;15.542;2022-12-18T01:47:26;29.27;;;24.77;;
11568;SDS011;5840;46.894;15.542;2022-12-18T01:49:57;29.47;;;26.27;;
11568;SDS011;5840;46.894;15.542;2022-12-18T01:52:25;34.87;;;27.90;;
11568;SDS011;5840;46.894;15.542;2022-12-18T01:54:56;32.27;;;26.33;;
11568;SDS011;5840;46.894;15.542;2022-12-18T01:57:23;32.90;;;27.00;;
11568;SDS011;5840;46.894;15.542;2022-12-18T01:59:53;31.63;;;26.73;;
11568;SDS011;5840;46.894;15.542;2022-12-18T02:02:22;31.90;;;27.10;;
11568;SDS011;5840;46.894;15.542;2022-12-18T02:04:49;30.70;;;26.60;;
11568;SDS011;5840;46.894;15.542;2022-12-18T02:07:17;32.97;;;27.17;;
11568;SDS011;5840;46.894;15.542;2022-12-18T02:09:50;31.27;;;25.77;;
11568;SDS011;5840;46.894;15.542;2022-12-18T02:12:23;32.07;;;25.50;;
11568;SDS011;5840;46.894;15.542;2022-12-18T02:14:55;31.60;;;25.50;;
11568;SDS011;5840;46.894;15.542;2022-12-18T02:17:27;31.73;;;26.57;;
11568;SDS011;5840;46.894;15.542;2022-12-18T02:20:02;31.33;;;25.93;;
11568;SDS011;5840;46.894;15.542;2022-12-18T02:22:36;30.13;;;25.97;;
11568;SDS011;5840;46.894;15.542;2022-12-18T02:25:13;30.87;;;26.50;;
11568;SDS011;5840;46.894;15.542;2022-12-18T02:27:50;28.13;;;23.60;;
11568;SDS011;5840;46.894;15.542;2022-12-18T02:30:19;25.57;;;22.87;;
11568;SDS011;5840;46.894;15.542;2022-12-18T02:32:48;28.03;;;24.60;;
11568;SDS011;5840;46.894;15.542;2022-12-18T02:35:19;27.87;;;23.90;;
11568;SDS011;5840;46.894;15.542;2022-12-18T02:37:49;30.13;;;25.40;;
11568;SDS011;5840;46.894;15.542;2022-12-18T02:40:17;28.67;;;24.07;;
11568;SDS011;5840;46.894;15.542;2022-12-18T02:42:46;28.93;;;24.87;;
11568;SDS011;5840;46.894;15.542;2022-12-18T02:45:15;25.30;;;22.50;;
11568;SDS011;5840;46.894;15.542;2022-12-18T02:47:43;26.10;;;23.30;;
11568;SDS011;5840;46.894;15.542;2022-12-18T02:50:16;23.70;;;21.00;;
11568;SDS011;5840;46.894;15.542;2022-12-18T02:52:50;26.73;;;22.70;;
11568;SDS011;5840;46.894;15.542;2022-12-18T02:55:28;26.10;;;22.77;;
11568;SDS011;5840;46.894;15.542;2022-12-18T02:58:02;25.80;;;22.40;;
11568;SDS011;5840;46.894;15.542;2022-12-18T03:00:33;25.33;;;21.90;;
11568;SDS011;5840;46.894;15.542;2022-12-18T03:03:06;27.13;;;23.10;;
11568;SDS011;5840;46.894;15.542;2022-12-18T03:05:38;26.23;;;23.43;;
11568;SDS011;5840;46.894;15.542;2022-12-18T03:08:10;25.30;;;22.60;;
11568;SDS011;5840;46.894;15.542;2022-12-18T03:10:43;24.73;;;21.67;;
11568;SDS011;5840;46.894;15.542;2022-12-18T03:13:17;26.00;;;23.47;;
11568;SDS011;5840;46.894;15.542;2022-12-18T03:15:51;26.00;;;23.20;;
11568;SDS011;5840;46.894;15.542;2022-12-18T03:18:22;25.70;;;23.00;;
11568;SDS011;5840;46.894;15.542;2022-12-18T03:20:51;25.57;;;22.90;;
11568;SDS011;5840;46.894;15.542;2022-12-18T03:23:22;27.00;;;23.23;;
11568;SDS011;5840;46.894;15.542;2022-12-18T03:25:55;25.67;;;22.43;;
11568;SDS011;5840;46.894;15.542;2022-12-18T03:28:26;26.57;;;23.40;;
11568;SDS011;5840;46.894;15.542;2022-12-18T03:30:59;26.23;;;23.43;;
11568;SDS011;5840;46.894;15.542;2022-12-18T03:33:28;25.87;;;23.03;;
11568;SDS011;5840;46.894;15.542;2022-12-18T03:36:00;24.53;;;21.93;;
11568;SDS011;5840;46.894;15.542;2022-12-18T03:38:28;27.53;;;23.43;;
11568;SDS011;5840;46.894;15.542;2022-12-18T03:40:57;26.40;;;23.27;;
11568;SDS011;5840;46.894;15.542;2022-12-18T03:43:42;25.97;;;23.20;;
11568;SDS011;5840;46.894;15.542;2022-12-18T03:46:17;25.50;;;22.80;;
11568;SDS011;5840;46.894;15.542;2022-12-18T03:48:52;26.87;;;23.97;;
11568;SDS011;5840;46.894;15.542;2022-12-18T03:51:26;27.23;;;22.77;;
11568;SDS011;5840;46.894;15.542;2022-12-18T03:54:02;26.33;;;23.57;;
11568;SDS011;5840;46.894;15.542;2022-12-18T03:56:33;27.17;;;24.23;;
11568;SDS011;5840;46.894;15.542;2022-12-18T03:59:03;30.67;;;25.10;;
11568;SDS011;5840;46.894;15.542;2022-12-18T04:01:33;29.13;;;24.87;;
11568;SDS011;5840;46.894;15.542;2022-12-18T04:04:05;26.77;;;23.27;;
11568;SDS011;5840;46.894;15.542;2022-12-18T04:06:34;27.10;;;24.20;;
11568;SDS011;5840;46.894;15.542;2022-12-18T04:09:02;26.00;;;23.20;;
11568;SDS011;5840;46.894;15.542;2022-12-18T04:11:30;25.60;;;22.87;;
11568;SDS011;5840;46.894;15.542;2022-12-18T04:13:57;24.80;;;22.30;;
11568;SDS011;5840;46.894;15.542;2022-12-18T04:16:25;26.77;;;23.87;;
11568;SDS011;5840;46.894;15.542;2022-12-18T04:18:53;27.13;;;22.93;;
11568;SDS011;5840;46.894;15.542;2022-12-18T04:21:20;25.70;;;22.90;;
11568;SDS011;5840;46.894;15.542;2022-12-18T04:23:47;25.67;;;22.77;;
11568;SDS011;5840;46.894;15.542;2022-12-18T04:26:14;27.03;;;23.60;;
11568;SDS011;5840;46.894;15.542;2022-12-18T04:28:41;24.57;;;21.97;;
11568;SDS011;5840;46.894;15.542;2022-12-18T04:31:08;28.93;;;23.37;;
11568;SDS011;5840;46.894;15.542;2022-12-18T04:33:35;26.33;;;23.53;;
11568;SDS011;5840;46.894;15.542;2022-12-18T04:36:04;26.90;;;23.13;;
11568;SDS011;5840;46.894;15.542;2022-12-18T04:38:31;25.70;;;22.87;;
11568;SDS011;5840;46.894;15.542;2022-12-18T04:40:58;26.63;;;23.80;;
11568;SDS011;5840;46.894;15.542;2022-12-18T04:43:25;26.40;;;23.60;;
11568;SDS011;5840;46.894;15.542;2022-12-18T04:45:52;26.67;;;23.77;;
11568;SDS011;5840;46.894;15.542;2022-12-18T04:48:19;26.77;;;23.53;;
11568;SDS011;5840;46.894;15.542;2022-12-18T04:50:46;26.80;;;23.50;;
11568;SDS011;5840;46.894;15.542;2022-12-18T04:53:15;28.87;;;24.27;;
11568;SDS011;5840;46.894;15.542;2022-12-18T04:55:43;27.07;;;23.87;;
11568;SDS011;5840;46.894;15.542;2022-12-18T04:58:10;25.33;;;22.60;;
11568;SDS011;5840;46.894;15.542;2022-12-18T05:00:37;26.67;;;22.67;;
11568;SDS011;5840;46.894;15.542;2022-12-18T05:03:04;26.07;;;23.10;;
11568;SDS011;5840;46.894;15.542;2022-12-18T05:05:31;26.63;;;23.77;;
11568;SDS011;5840;46.894;15.542;2022-12-18T05:08:00;27.70;;;24.10;;
11568;SDS011;5840;46.894;15.542;2022-12-18T05:10:28;27.87;;;23.53;;
11568;SDS011;5840;46.894;15.542;2022-12-18T05:12:55;27.10;;;24.20;;
11568;SDS011;5840;46.894;15.542;2022-12-18T05:15:26;26.97;;;24.03;;
11568;SDS011;5840;46.894;15.542;2022-12-18T05:17:53;27.87;;;24.33;;
11568;SDS011;5840;46.894;15.542;2022-12-18T05:20:20;27.87;;;24.87;;
11568;SDS011;5840;46.894;15.542;2022-12-18T05:22:47;26.90;;;24.00;;
11568;SDS011;5840;46.894;15.542;2022-12-18T05:25:14;27.90;;;24.90;;
11568;SDS011;5840;46.894;15.542;2022-12-18T05:27:43;25.97;;;23.20;;
11568;SDS011;5840;46.894;15.542;2022-12-18T05:30:10;27.30;;;24.40;;
11568;SDS011;5840;46.894;15.542;2022-12-18T05:32:38;26.80;;;23.53;;
11568;SDS011;5840;46.894;15.542;2022-12-18T05:35:09;26.30;;;23.37;;
11568;SDS011;5840;46.894;15.542;2022-12-18T05:37:37;27.53;;;22.93;;
11568;SDS011;5840;46.894;15.542;2022-12-18T05:40:04;24.83;;;21.30;;
11568;SDS011;5840;46.894;15.542;2022-12-18T05:42:31;29.07;;;24.07;;
11568;SDS011;5840;46.894;15.542;2022-12-18T05:45:00;22.93;;;20.13;;
11568;SDS011;5840;46.894;15.542;2022-12-18T05:47:28;22.73;;;19.50;;
11568;SDS011;5840;46.894;15.542;2022-12-18T05:49:55;25.10;;;19.53;;
11568;SDS011;5840;46.894;15.542;2022-12-18T05:52:22;25.90;;;20.50;;
11568;SDS011;5840;46.894;15.542;2022-12-18T05:54:49;22.50;;;20.03;;
11568;SDS011;5840;46.894;15.542;2022-12-18T05:57:16;26.27;;;22.20;;
11568;SDS011;5840;46.894;15.542;2022-12-18T05:59:43;25.87;;;21.90;;
11568;SDS011;5840;46.894;15.542;2022-12-18T06:02:11;26.90;;;23.67;;
11568;SDS011;5840;46.894;15.542;2022-12-18T06:04:38;27.30;;;23.17;;
11568;SDS011;5840;46.894;15.542;2022-12-18T06:07:05;26.30;;;23.47;;
11568;SDS011;5840;46.894;15.542;2022-12-18T06:09:32;27.80;;;24.53;;
11568;SDS011;5840;46.894;15.542;2022-12-18T06:11:59;26.37;;;23.33;;
11568;SDS011;5840;46.894;15.542;2022-12-18T06:14:26;26.57;;;23.77;;
11568;SDS011;5840;46.894;15.542;2022-12-18T06:16:52;28.23;;;22.53;;
11568;SDS011;5840;46.894;15.542;2022-12-18T06:19:21;27.00;;;23.97;;
11568;SDS011;5840;46.894;15.542;2022-12-18T06:21:48;26.77;;;22.83;;
11568;SDS011;5840;46.894;15.542;2022-12-18T06:24:15;27.57;;;23.33;;
11568;SDS011;5840;46.894;15.542;2022-12-18T06:26:42;27.63;;;22.93;;
11568;SDS011;5840;46.894;15.542;2022-12-18T06:29:09;26.93;;;23.47;;
11568;SDS011;5840;46.894;15.542;2022-12-18T06:31:36;26.20;;;21.93;;
11568;SDS011;5840;46.894;15.542;2022-12-18T06:34:03;26.07;;;21.33;;
11568;SDS011;5840;46.894;15.542;2022-12-18T06:36:32;28.53;;;22.37;;
11568;SDS011;5840;46.894;15.542;2022-12-18T06:38:58;26.33;;;21.70;;
11568;SDS011;5840;46.894;15.542;2022-12-18T06:41:25;28.43;;;24.13;;
11568;SDS011;5840;46.894;15.542;2022-12-18T06:43:52;31.47;;;23.70;;
11568;SDS011;5840;46.894;15.542;2022-12-18T06:46:19;29.27;;;23.37;;
11568;SDS011;5840;46.894;15.542;2022-12-18T06:48:47;29.97;;;23.67;;
11568;SDS011;5840;46.894;15.542;2022-12-18T06:51:18;31.13;;;25.83;;
11568;SDS011;5840;46.894;15.542;2022-12-18T06:53:47;27.67;;;23.87;;
11568;SDS011;5840;46.894;15.542;2022-12-18T06:56:14;34.77;;;26.33;;
11568;SDS011;5840;46.894;15.542;2022-12-18T06:58:41;31.13;;;24.30;;
11568;SDS011;5840;46.894;15.542;2022-12-18T07:01:09;31.57;;;24.17;;
11568;SDS011;5840;46.894;15.542;2022-12-18T07:03:37;31.83;;;25.97;;
11568;SDS011;5840;46.894;15.542;2022-12-18T07:06:05;31.20;;;25.27;;
11568;SDS011;5840;46.894;15.542;2022-12-18T07:08:32;32.87;;;24.67;;
11568;SDS011;5840;46.894;15.542;2022-12-18T07:11:03;29.73;;;23.87;;
11568;SDS011;5840;46.894;15.542;2022-12-18T07:13:30;31.57;;;24.90;;
11568;SDS011;5840;46.894;15.542;2022-12-18T07:16:02;30.93;;;25.50;;
11568;SDS011;5840;46.894;15.542;2022-12-18T07:18:31;34.27;;;26.97;;
11568;SDS011;5840;46.894;15.542;2022-12-18T07:20:58;33.33;;;26.20;;
11568;SDS011;5840;46.894;15.542;2022-12-18T07:23:28;31.00;;;25.77;;
11568;SDS011;5840;46.894;15.542;2022-12-18T07:25:55;33.37;;;25.47;;
11568;SDS011;5840;46.894;15.542;2022-12-18T07:28:23;34.10;;;25.73;;
11568;SDS011;5840;46.894;15.542;2022-12-18T07:30:50;33.03;;;26.50;;
11568;SDS011;5840;46.894;15.542;2022-12-18T07:33:16;46.97;;;35.53;;
11568;SDS011;5840;46.894;15.542;2022-12-18T07:35:43;34.03;;;27.47;;
11568;SDS011;5840;46.894;15.542;2022-12-18T07:38:10;36.20;;;25.87;;
11568;SDS011;5840;46.894;15.542;2022-12-18T07:40:37;34.43;;;27.40;;
11568;SDS011;5840;46.894;15.542;2022-12-18T07:43:04;34.70;;;26.33;;
11568;SDS011;5840;46.894;15.542;2022-12-18T07:45:32;35.23;;;26.63;;
11568;SDS011;5840;46.894;15.542;2022-12-18T07:47:59;35.63;;;27.93;;
11568;SDS011;5840;46.894;15.542;2022-12-18T07:50:26;36.70;;;29.07;;
11568;SDS011;5840;46.894;15.542;2022-12-18T07:52:53;35.60;;;27.10;;
11568;SDS011;5840;46.894;15.542;2022-12-18T07:55:20;35.70;;;29.70;;
11568;SDS011;5840;46.894;15.542;2022-12-18T07:57:46;38.27;;;28.80;;
11568;SDS011;5840;46.894;15.542;2022-12-18T08:00:14;36.17;;;27.53;;
11568;SDS011;5840;46.894;15.542;2022-12-18T08:02:42;39.10;;;27.97;;
11568;SDS011;5840;46.894;15.542;2022-12-18T08:05:09;37.67;;;28.77;;
11568;SDS011;5840;46.894;15.542;2022-12-18T08:07:36;36.73;;;28.23;;
11568;SDS011;5840;46.894;15.542;2022-12-18T08:10:03;42.17;;;29.73;;
11568;SDS011;5840;46.894;15.542;2022-12-18T08:12:31;34.07;;;26.90;;
11568;SDS011;5840;46.894;15.542;2022-12-18T08:14:57;32.37;;;26.77;;
11568;SDS011;5840;46.894;15.542;2022-12-18T08:17:24;30.40;;;25.50;;
11568;SDS011;5840;46.894;15.542;2022-12-18T08:19:53;33.47;;;27.33;;
11568;SDS011;5840;46.894;15.542;2022-12-18T08:22:20;28.73;;;25.63;;
11568;SDS011;5840;46.894;15.542;2022-12-18T08:24:46;30.27;;;26.43;;
11568;SDS011;5840;46.894;15.542;2022-12-18T08:27:13;36.17;;;27.90;;
11568;SDS011;5840;46.894;15.542;2022-12-18T08:29:40;34.83;;;27.50;;
11568;SDS011;5840;46.894;15.542;2022-12-18T08:32:07;33.87;;;26.67;;
11568;SDS011;5840;46.894;15.542;2022-12-18T08:34:34;35.23;;;27.87;;
11568;SDS011;5840;46.894;15.542;2022-12-18T08:37:03;34.60;;;26.70;;
11568;SDS011;5840;46.894;15.542;2022-12-18T08:39:29;33.20;;;27.03;;
11568;SDS011;5840;46.894;15.542;2022-12-18T08:41:56;34.10;;;27.27;;
11568;SDS011;5840;46.894;15.542;2022-12-18T08:44:41;34.33;;;27.47;;
11568;SDS011;5840;46.894;15.542;2022-12-18T08:47:08;36.73;;;27.27;;
11568;SDS011;5840;46.894;15.542;2022-12-18T08:49:35;37.53;;;28.93;;
11568;SDS011;5840;46.894;15.542;2022-12-18T08:52:03;32.87;;;27.97;;
11568;SDS011;5840;46.894;15.542;2022-12-18T08:54:30;44.07;;;31.77;;
11568;SDS011;5840;46.894;15.542;2022-12-18T08:56:57;34.77;;;27.50;;
11568;SDS011;5840;46.894;15.542;2022-12-18T08:59:24;35.20;;;27.53;;
11568;SDS011;5840;46.894;15.542;2022-12-18T09:01:53;35.30;;;27.97;;
11568;SDS011;5840;46.894;15.542;2022-12-18T09:04:20;38.27;;;29.70;;
11568;SDS011;5840;46.894;15.542;2022-12-18T09:06:47;38.40;;;29.53;;
11568;SDS011;5840;46.894;15.542;2022-12-18T09:09:15;34.33;;;26.83;;
11568;SDS011;5840;46.894;15.542;2022-12-18T09:11:42;40.97;;;31.23;;
11568;SDS011;5840;46.894;15.542;2022-12-18T09:14:09;37.70;;;29.03;;
11568;SDS011;5840;46.894;15.542;2022-12-18T09:16:36;37.70;;;29.20;;
11568;SDS011;5840;46.894;15.542;2022-12-18T09:19:03;37.67;;;29.30;;
11568;SDS011;5840;46.894;15.542;2022-12-18T09:21:32;35.10;;;28.97;;
11568;SDS011;5840;46.894;15.542;2022-12-18T09:24:03;37.80;;;29.40;;
11568;SDS011;5840;46.894;15.542;2022-12-18T09:26:33;38.87;;;29.90;;
11568;SDS011;5840;46.894;15.542;2022-12-18T09:28:59;36.57;;;28.93;;
11568;SDS011;5840;46.894;15.542;2022-12-18T09:31:26;36.53;;;28.80;;
11568;SDS011;5840;46.894;15.542;2022-12-18T09:33:54;36.23;;;28.03;;
11568;SDS011;5840;46.894;15.542;2022-12-18T09:36:21;35.40;;;28.50;;
11568;SDS011;5840;46.894;15.542;2022-12-18T09:38:48;41.27;;;30.73;;
11568;SDS011;5840;46.894;15.542;2022-12-18T09:41:17;37.57;;;28.70;;
11568;SDS011;5840;46.894;15.542;2022-12-18T09:44:09;39.37;;;29.60;;
11568;SDS011;5840;46.894;15.542;2022-12-18T09:46:43;41.23;;;29.37;;
11568;SDS011;5840;46.894;15.542;2022-12-18T09:49:14;39.47;;;29.63;;
11568;SDS011;5840;46.894;15.542;2022-12-18T09:51:45;41.23;;;29.10;;
11568;SDS011;5840;46.894;15.542;2022-12-18T09:54:16;38.83;;;28.33;;
11568;SDS011;5840;46.894;15.542;2022-12-18T09:56:48;39.00;;;28.17;;
11568;SDS011;5840;46.894;15.542;2022-12-18T09:59:18;41.33;;;29.37;;
11568;SDS011;5840;46.894;15.542;2022-12-18T10:01:49;35.50;;;26.90;;
11568;SDS011;5840;46.894;15.542;2022-12-18T10:04:16;38.00;;;28.13;;
11568;SDS011;5840;46.894;15.542;2022-12-18T10:06:44;39.77;;;29.53;;
11568;SDS011;5840;46.894;15.542;2022-12-18T10:09:20;40.20;;;28.57;;
11568;SDS011;5840;46.894;15.542;2022-12-18T10:11:57;38.70;;;29.40;;
11568;SDS011;5840;46.894;15.542;2022-12-18T10:14:34;37.90;;;28.00;;
11568;SDS011;5840;46.894;15.542;2022-12-18T10:17:10;40.83;;;31.80;;
11568;SDS011;5840;46.894;15.542;2022-12-18T10:19:50;38.20;;;28.60;;
11568;SDS011;5840;46.894;15.542;2022-12-18T10:22:23;40.43;;;28.47;;
11568;SDS011;5840;46.894;15.542;2022-12-18T10:25:00;40.97;;;29.77;;
11568;SDS011;5840;46.894;15.542;2022-12-18T10:27:32;39.60;;;29.57;;
11568;SDS011;5840;46.894;15.542;2022-12-18T10:29:59;39.37;;;29.53;;
11568;SDS011;5840;46.894;15.542;2022-12-18T10:32:35;40.17;;;29.53;;
11568;SDS011;5840;46.894;15.542;2022-12-18T10:35:02;42.43;;;29.77;;
11568;SDS011;5840;46.894;15.542;2022-12-18T10:37:29;43.00;;;28.50;;
11568;SDS011;5840;46.894;15.542;2022-12-18T10:40:06;36.73;;;25.27;;
11568;SDS011;5840;46.894;15.542;2022-12-18T10:42:37;39.03;;;26.70;;
11568;SDS011;5840;46.894;15.542;2022-12-18T10:45:08;33.97;;;25.57;;
11568;SDS011;5840;46.894;15.542;2022-12-18T10:47:41;36.47;;;25.43;;
11568;SDS011;5840;46.894;15.542;2022-12-18T10:50:17;35.93;;;24.70;;
11568;SDS011;5840;46.894;15.542;2022-12-18T10:52:52;30.27;;;23.90;;
11568;SDS011;5840;46.894;15.542;2022-12-18T10:55:21;34.53;;;25.53;;
11568;SDS011;5840;46.894;15.542;2022-12-18T10:57:50;34.37;;;26.60;;
11568;SDS011;5840;46.894;15.542;2022-12-18T11:00:24;32.73;;;23.83;;
11568;SDS011;5840;46.894;15.542;2022-12-18T11:02:53;35.07;;;24.77;;
11568;SDS011;5840;46.894;15.542;2022-12-18T11:05:25;35.33;;;25.30;;
11568;SDS011;5840;46.894;15.542;2022-12-18T11:07:55;36.13;;;26.43;;
11568;SDS011;5840;46.894;15.542;2022-12-18T11:10:25;33.30;;;24.63;;
11568;SDS011;5840;46.894;15.542;2022-12-18T11:12:56;26.63;;;21.07;;
11568;SDS011;5840;46.894;15.542;2022-12-18T11:15:41;28.70;;;20.97;;
11568;SDS011;5840;46.894;15.542;2022-12-18T11:18:15;27.57;;;21.43;;
11568;SDS011;5840;46.894;15.542;2022-12-18T11:20:49;26.60;;;19.60;;
11568;SDS011;5840;46.894;15.542;2022-12-18T11:23:18;26.77;;;20.43;;
11568;SDS011;5840;46.894;15.542;2022-12-18T11:25:52;24.83;;;19.87;;
11568;SDS011;5840;46.894;15.542;2022-12-18T11:28:27;27.63;;;20.87;;
11568;SDS011;5840;46.894;15.542;2022-12-18T11:31:12;25.70;;;20.47;;
11568;SDS011;5840;46.894;15.542;2022-12-18T11:33:50;22.57;;;18.70;;
11568;SDS011;5840;46.894;15.542;2022-12-18T11:36:22;25.40;;;19.73;;
11568;SDS011;5840;46.894;15.542;2022-12-18T11:38:51;25.30;;;18.43;;
11568;SDS011;5840;46.894;15.542;2022-12-18T11:41:21;25.90;;;19.97;;
11568;SDS011;5840;46.894;15.542;2022-12-18T11:44:15;23.80;;;19.57;;
11568;SDS011;5840;46.894;15.542;2022-12-18T11:46:51;28.13;;;20.33;;
11568;SDS011;5840;46.894;15.542;2022-12-18T11:49:24;24.50;;;19.90;;
11568;SDS011;5840;46.894;15.542;2022-12-18T11:51:57;26.00;;;21.03;;
11568;SDS011;5840;46.894;15.542;2022-12-18T11:54:28;25.47;;;20.10;;
11568;SDS011;5840;46.894;15.542;2022-12-18T11:56:56;27.93;;;23.00;;
11568;SDS011;5840;46.894;15.542;2022-12-18T11:59:33;26.80;;;20.00;;
11568;SDS011;5840;46.894;15.542;2022-12-18T12:02:11;27.27;;;21.60;;
11568;SDS011;5840;46.894;15.542;2022-12-18T12:05:09;22.80;;;19.90;;
11568;SDS011;5840;46.894;15.542;2022-12-18T12:07:52;25.27;;;20.37;;
11568;SDS011;5840;46.894;15.542;2022-12-18T12:10:26;26.57;;;21.67;;
11568;SDS011;5840;46.894;15.542;2022-12-18T12:13:04;27.40;;;22.77;;
11568;SDS011;5840;46.894;15.542;2022-12-18T12:15:45;29.93;;;22.37;;
11568;SDS011;5840;46.894;15.542;2022-12-18T12:18:20;26.40;;;22.47;;
11568;SDS011;5840;46.894;15.542;2022-12-18T12:20:57;26.60;;;20.10;;
11568;SDS011;5840;46.894;15.542;2022-12-18T12:23:32;24.17;;;20.57;;
11568;SDS011;5840;46.894;15.542;2022-12-18T12:26:06;27.77;;;22.37;;
11568;SDS011;5840;46.894;15.542;2022-12-18T12:28:42;27.50;;;21.70;;
11568;SDS011;5840;46.894;15.542;2022-12-18T12:31:25;29.33;;;23.33;;
11568;SDS011;5840;46.894;15.542;2022-12-18T12:34:01;30.13;;;23.93;;
11568;SDS011;5840;46.894;15.542;2022-12-18T12:36:38;30.23;;;23.67;;
11568;SDS011;5840;46.894;15.542;2022-12-18T12:39:15;31.67;;;25.40;;
11568;SDS011;5840;46.894;15.542;2022-12-18T12:41:46;29.90;;;23.40;;
11568;SDS011;5840;46.894;15.542;2022-12-18T12:44:32;31.53;;;23.37;;
11568;SDS011;5840;46.894;15.542;2022-12-18T12:47:13;27.57;;;21.33;;
11568;SDS011;5840;46.894;15.542;2022-12-18T12:49:45;30.27;;;23.70;;
11568;SDS011;5840;46.894;15.542;2022-12-18T12:52:14;26.23;;;20.40;;
11568;SDS011;5840;46.894;15.542;2022-12-18T12:54:44;25.80;;;20.83;;
11568;SDS011;5840;46.894;15.542;2022-12-18T12:57:13;29.97;;;23.03;;
11568;SDS011;5840;46.894;15.542;2022-12-18T12:59:47;28.00;;;22.40;;
11568;SDS011;5840;46.894;15.542;2022-12-18T13:02:24;28.13;;;21.40;;
11568;SDS011;5840;46.894;15.542;2022-12-18T13:04:57;26.27;;;21.30;;
11568;SDS011;5840;46.894;15.542;2022-12-18T13:07:32;25.53;;;20.93;;
11568;SDS011;5840;46.894;15.542;2022-12-18T13:10:13;28.30;;;23.47;;
11568;SDS011;5840;46.894;15.542;2022-12-18T13:12:54;23.13;;;18.90;;
11568;SDS011;5840;46.894;15.542;2022-12-18T13:15:21;23.20;;;19.53;;
11568;SDS011;5840;46.894;15.542;2022-12-18T13:18:03;21.90;;;18.47;;
11568;SDS011;5840;46.894;15.542;2022-12-18T13:20:40;23.70;;;18.73;;
11568;SDS011;5840;46.894;15.542;2022-12-18T13:23:26;22.60;;;18.83;;
11568;SDS011;5840;46.894;15.542;2022-12-18T13:25:59;26.40;;;19.63;;
11568;SDS011;5840;46.894;15.542;2022-12-18T13:28:51;28.37;;;21.97;;
11568;SDS011;5840;46.894;15.542;2022-12-18T13:34:35;26.10;;;20.17;;
11568;SDS011;5840;46.894;15.542;2022-12-18T13:43:26;26.93;;;20.63;;
11568;SDS011;5840;46.894;15.542;2022-12-18T13:46:16;25.10;;;20.93;;
11568;SDS011;5840;46.894;15.542;2022-12-18T13:48:49;24.17;;;20.13;;
11568;SDS011;5840;46.894;15.542;2022-12-18T13:51:28;25.83;;;21.17;;
11568;SDS011;5840;46.894;15.542;2022-12-18T13:53:57;26.77;;;20.47;;
11568;SDS011;5840;46.894;15.542;2022-12-18T13:56:28;26.23;;;20.40;;
11568;SDS011;5840;46.894;15.542;2022-12-18T13:59:03;24.43;;;20.47;;
11568;SDS011;5840;46.894;15.542;2022-12-18T14:01:46;26.17;;;20.90;;
11568;SDS011;5840;46.894;15.542;2022-12-18T14:04:22;24.73;;;19.63;;
11568;SDS011;5840;46.894;15.542;2022-12-18T14:06:55;26.63;;;20.23;;
11568;SDS011;5840;46.894;15.542;2022-12-18T14:09:26;24.93;;;21.10;;
11568;SDS011;5840;46.894;15.542;2022-12-18T14:11:55;25.50;;;20.13;;
11568;SDS011;5840;46.894;15.542;2022-12-18T14:14:37;26.77;;;22.13;;
11568;SDS011;5840;46.894;15.542;2022-12-18T14:17:09;25.97;;;20.93;;
11568;SDS011;5840;46.894;15.542;2022-12-18T14:19:40;24.53;;;21.40;;
11568;SDS011;5840;46.894;15.542;2022-12-18T14:22:13;29.63;;;23.53;;
11568;SDS011;5840;46.894;15.542;2022-12-18T14:24:42;27.90;;;21.83;;
11568;SDS011;5840;46.894;15.542;2022-12-18T14:27:17;26.57;;;21.17;;
11568;SDS011;5840;46.894;15.542;2022-12-18T14:29:48;27.60;;;21.77;;
11568;SDS011;5840;46.894;15.542;2022-12-18T14:32:17;28.43;;;22.40;;
11568;SDS011;5840;46.894;15.542;2022-12-18T14:34:45;28.10;;;23.53;;
11568;SDS011;5840;46.894;15.542;2022-12-18T14:37:14;26.10;;;22.10;;
11568;SDS011;5840;46.894;15.542;2022-12-18T14:39:52;25.53;;;21.63;;
11568;SDS011;5840;46.894;15.542;2022-12-18T14:42:23;26.27;;;21.30;;
11568;SDS011;5840;46.894;15.542;2022-12-18T14:47:53;24.33;;;20.43;;
11568;SDS011;5840;46.894;15.542;2022-12-18T14:50:20;23.93;;;20.33;;
11568;SDS011;5840;46.894;15.542;2022-12-18T14:52:47;24.77;;;19.93;;
11568;SDS011;5840;46.894;15.542;2022-12-18T14:55:15;24.77;;;19.93;;